West Carthage, New York
Current Conditions -  °F | °C
As of 10:58 AM on Friday 28 Nov 2014 (Local Time) from KGTB Reporting Station
Overcast Overcast  
Wind Chill: 14°   Ceiling: 3500
Heat Index: 24°   Visibility: 10mi
Dew Point: 18°   Wind: 9mph
Humidity: 77%   Direction: 300°WNW
Pressure: 30.14"   Gusts: NA
Location:  43.9769°N, 75.558°W
Report Text: KGTB 281558Z AUTO 30008KT 270V330 10SM SCT014 BKN035 OVC055 M04/M08 A3014 RMK AO2 UPB1538E1546SNE1501B1505E1538 CIG 018 RWY03 SLP217 P0000 T10451080
Loading
Personal Weather Stations






























Interactive Weather Map New forecast layout! Learn more

10-Day Weather Forecast

Advertisements
Track Severe Weather on mobile